sensor_id;sensor_type;location;lat;lon;timestamp;pressure;altitude;pressure_sealevel;temperature;humidity
83488;BME280;73424;49.994;8.184;2023-11-18T00:01:46;100896.63;;;1.90;98.38
83488;BME280;73424;49.994;8.184;2023-11-18T00:04:11;100889.00;;;1.76;98.98
83488;BME280;73424;49.994;8.184;2023-11-18T00:06:44;100921.38;;;1.99;98.17
83488;BME280;73424;49.994;8.184;2023-11-18T00:09:11;100912.66;;;1.87;98.35
83488;BME280;73424;49.994;8.184;2023-11-18T00:11:38;100936.94;;;1.80;98.50
83488;BME280;73424;49.994;8.184;2023-11-18T00:14:03;100925.81;;;1.76;98.48
83488;BME280;73424;49.994;8.184;2023-11-18T00:16:29;100929.16;;;1.78;99.20
83488;BME280;73424;49.994;8.184;2023-11-18T00:18:55;100912.22;;;1.71;98.74
83488;BME280;73424;49.994;8.184;2023-11-18T00:21:20;100894.88;;;1.57;98.78
83488;BME280;73424;49.994;8.184;2023-11-18T00:23:45;100901.56;;;1.61;98.27
83488;BME280;73424;49.994;8.184;2023-11-18T00:26:11;100903.72;;;1.56;98.56
83488;BME280;73424;49.994;8.184;2023-11-18T00:28:36;100900.72;;;1.61;99.65
83488;BME280;73424;49.994;8.184;2023-11-18T00:31:02;100906.22;;;1.58;98.25
83488;BME280;73424;49.994;8.184;2023-11-18T00:33:29;100893.81;;;1.49;98.86
83488;BME280;73424;49.994;8.184;2023-11-18T00:35:54;100910.41;;;1.49;99.27
83488;BME280;73424;49.994;8.184;2023-11-18T00:38:19;100907.91;;;1.59;98.49
83488;BME280;73424;49.994;8.184;2023-11-18T00:40:45;100879.69;;;1.28;98.65
83488;BME280;73424;49.994;8.184;2023-11-18T00:43:10;100922.97;;;1.46;99.54
83488;BME280;73424;49.994;8.184;2023-11-18T00:45:35;100911.94;;;1.41;99.36
83488;BME280;73424;49.994;8.184;2023-11-18T00:48:00;100921.63;;;1.51;99.28
83488;BME280;73424;49.994;8.184;2023-11-18T00:50:26;100899.03;;;1.38;99.85
83488;BME280;73424;49.994;8.184;2023-11-18T00:52:51;100895.22;;;1.42;99.35
83488;BME280;73424;49.994;8.184;2023-11-18T00:55:17;100902.03;;;1.44;99.56
83488;BME280;73424;49.994;8.184;2023-11-18T00:57:45;100888.41;;;1.39;99.68
83488;BME280;73424;49.994;8.184;2023-11-18T01:00:12;100927.03;;;1.61;99.04
83488;BME280;73424;49.994;8.184;2023-11-18T01:02:42;100944.72;;;1.70;98.93
83488;BME280;73424;49.994;8.184;2023-11-18T01:05:07;100920.47;;;1.55;99.32
83488;BME280;73424;49.994;8.184;2023-11-18T01:07:39;100913.16;;;1.37;99.23
83488;BME280;73424;49.994;8.184;2023-11-18T01:10:06;100919.03;;;1.40;99.47
83488;BME280;73424;49.994;8.184;2023-11-18T01:12:31;100933.59;;;1.55;99.65
83488;BME280;73424;49.994;8.184;2023-11-18T01:14:57;100913.06;;;1.49;99.67
83488;BME280;73424;49.994;8.184;2023-11-18T01:17:28;100931.44;;;1.60;98.87
83488;BME280;73424;49.994;8.184;2023-11-18T01:20:04;100924.84;;;1.44;99.25
83488;BME280;73424;49.994;8.184;2023-11-18T01:22:35;100923.44;;;1.40;99.87
83488;BME280;73424;49.994;8.184;2023-11-18T01:25:01;100928.22;;;1.46;99.58
83488;BME280;73424;49.994;8.184;2023-11-18T01:27:26;100917.34;;;1.39;98.81
83488;BME280;73424;49.994;8.184;2023-11-18T01:29:52;100913.16;;;1.37;99.19
83488;BME280;73424;49.994;8.184;2023-11-18T01:32:18;100924.63;;;1.58;98.58
83488;BME280;73424;49.994;8.184;2023-11-18T01:34:44;100923.41;;;1.29;97.79
83488;BME280;73424;49.994;8.184;2023-11-18T01:37:15;100897.34;;;1.03;99.20
83488;BME280;73424;49.994;8.184;2023-11-18T01:39:40;100916.59;;;1.26;99.46
83488;BME280;73424;49.994;8.184;2023-11-18T01:42:06;100919.81;;;1.30;99.45
83488;BME280;73424;49.994;8.184;2023-11-18T01:44:31;100858.16;;;1.00;99.14
83488;BME280;73424;49.994;8.184;2023-11-18T01:46:59;100892.94;;;1.15;99.27
83488;BME280;73424;49.994;8.184;2023-11-18T01:49:33;100914.72;;;1.28;99.33
83488;BME280;73424;49.994;8.184;2023-11-18T01:52:05;100921.84;;;1.26;99.61
83488;BME280;73424;49.994;8.184;2023-11-18T01:54:36;100923.63;;;1.15;98.89
83488;BME280;73424;49.994;8.184;2023-11-18T01:57:05;100909.88;;;1.00;98.93
83488;BME280;73424;49.994;8.184;2023-11-18T01:59:34;100922.53;;;1.06;99.58
83488;BME280;73424;49.994;8.184;2023-11-18T02:01:59;100927.75;;;0.95;98.80
83488;BME280;73424;49.994;8.184;2023-11-18T02:04:25;100938.16;;;1.07;99.29
83488;BME280;73424;49.994;8.184;2023-11-18T02:06:52;100935.53;;;1.07;98.77
83488;BME280;73424;49.994;8.184;2023-11-18T02:09:18;100871.69;;;0.61;98.67
83488;BME280;73424;49.994;8.184;2023-11-18T02:14:50;100926.63;;;0.75;99.72
83488;BME280;73424;49.994;8.184;2023-11-18T02:17:20;100952.38;;;0.94;99.15
83488;BME280;73424;49.994;8.184;2023-11-18T02:19:56;100959.28;;;0.95;98.91
83488;BME280;73424;49.994;8.184;2023-11-18T02:22:22;100910.97;;;0.74;99.38
83488;BME280;73424;49.994;8.184;2023-11-18T02:24:47;100935.22;;;0.77;99.69
83488;BME280;73424;49.994;8.184;2023-11-18T02:27:12;100948.28;;;0.90;98.83
83488;BME280;73424;49.994;8.184;2023-11-18T02:29:40;100930.19;;;0.74;98.40
83488;BME280;73424;49.994;8.184;2023-11-18T02:35:09;100962.41;;;1.00;98.74
83488;BME280;73424;49.994;8.184;2023-11-18T02:37:47;100951.28;;;0.96;98.96
83488;BME280;73424;49.994;8.184;2023-11-18T02:40:27;100915.63;;;0.70;98.58
83488;BME280;73424;49.994;8.184;2023-11-18T02:42:57;100876.63;;;0.42;98.38
83488;BME280;73424;49.994;8.184;2023-11-18T02:45:24;100931.41;;;0.81;98.50
83488;BME280;73424;49.994;8.184;2023-11-18T02:47:50;100960.56;;;0.89;98.66
83488;BME280;73424;49.994;8.184;2023-11-18T02:50:16;100964.41;;;0.85;97.49
83488;BME280;73424;49.994;8.184;2023-11-18T02:52:44;100933.25;;;0.57;97.42
83488;BME280;73424;49.994;8.184;2023-11-18T02:55:09;100919.00;;;0.48;98.38
83488;BME280;73424;49.994;8.184;2023-11-18T02:57:36;100937.56;;;0.58;98.31
83488;BME280;73424;49.994;8.184;2023-11-18T03:00:02;100938.03;;;0.63;98.22
83488;BME280;73424;49.994;8.184;2023-11-18T03:02:29;100914.31;;;0.41;99.37
83488;BME280;73424;49.994;8.184;2023-11-18T03:04:57;100886.56;;;0.26;98.79
83488;BME280;73424;49.994;8.184;2023-11-18T03:07:23;100895.38;;;0.25;99.47
83488;BME280;73424;49.994;8.184;2023-11-18T03:09:49;100866.06;;;0.07;99.06
83488;BME280;73424;49.994;8.184;2023-11-18T03:12:14;100925.06;;;0.49;98.79
83488;BME280;73424;49.994;8.184;2023-11-18T03:14:39;100916.09;;;0.40;98.25
83488;BME280;73424;49.994;8.184;2023-11-18T03:17:05;100897.28;;;0.23;98.22
83488;BME280;73424;49.994;8.184;2023-11-18T03:19:35;100913.53;;;0.51;98.79
83488;BME280;73424;49.994;8.184;2023-11-18T03:22:01;100915.72;;;0.58;99.65
83488;BME280;73424;49.994;8.184;2023-11-18T03:24:27;100875.19;;;0.49;98.93
83488;BME280;73424;49.994;8.184;2023-11-18T03:26:54;100894.09;;;0.54;98.23
83488;BME280;73424;49.994;8.184;2023-11-18T03:29:19;100938.22;;;0.84;98.63
83488;BME280;73424;49.994;8.184;2023-11-18T03:31:44;100902.44;;;0.59;99.28
83488;BME280;73424;49.994;8.184;2023-11-18T03:34:13;100928.66;;;0.83;99.47
83488;BME280;73424;49.994;8.184;2023-11-18T03:36:38;100948.91;;;1.04;99.68
83488;BME280;73424;49.994;8.184;2023-11-18T03:39:04;100921.47;;;1.08;99.73
83488;BME280;73424;49.994;8.184;2023-11-18T03:41:29;100910.72;;;1.12;99.30
83488;BME280;73424;49.994;8.184;2023-11-18T03:43:55;100937.00;;;1.23;99.26
83488;BME280;73424;49.994;8.184;2023-11-18T03:46:20;100949.44;;;1.21;99.24
83488;BME280;73424;49.994;8.184;2023-11-18T03:48:45;100941.81;;;1.29;99.14
83488;BME280;73424;49.994;8.184;2023-11-18T03:51:11;100916.97;;;1.22;98.81
83488;BME280;73424;49.994;8.184;2023-11-18T03:53:36;100933.72;;;1.43;99.04
83488;BME280;73424;49.994;8.184;2023-11-18T03:56:02;100920.19;;;1.36;98.38
83488;BME280;73424;49.994;8.184;2023-11-18T03:58:28;100933.25;;;1.49;97.99
83488;BME280;73424;49.994;8.184;2023-11-18T04:00:53;100924.09;;;1.08;97.98
83488;BME280;73424;49.994;8.184;2023-11-18T04:03:19;100941.06;;;1.16;98.73
83488;BME280;73424;49.994;8.184;2023-11-18T04:05:47;100933.09;;;1.39;98.66
83488;BME280;73424;49.994;8.184;2023-11-18T04:08:18;100929.63;;;1.50;98.89
83488;BME280;73424;49.994;8.184;2023-11-18T04:10:45;100909.31;;;1.41;98.95
83488;BME280;73424;49.994;8.184;2023-11-18T04:13:10;100923.69;;;1.59;99.59
83488;BME280;73424;49.994;8.184;2023-11-18T04:15:35;100897.63;;;1.45;98.65
83488;BME280;73424;49.994;8.184;2023-11-18T04:18:01;100890.78;;;1.20;99.19
83488;BME280;73424;49.994;8.184;2023-11-18T04:20:26;100937.53;;;1.50;99.77
83488;BME280;73424;49.994;8.184;2023-11-18T04:22:52;100910.16;;;1.41;99.51
83488;BME280;73424;49.994;8.184;2023-11-18T04:25:17;100877.78;;;1.41;99.13
83488;BME280;73424;49.994;8.184;2023-11-18T04:27:43;100920.56;;;1.76;98.82
83488;BME280;73424;49.994;8.184;2023-11-18T04:30:08;100871.81;;;1.61;99.46
83488;BME280;73424;49.994;8.184;2023-11-18T04:32:34;100860.66;;;1.69;99.08
83488;BME280;73424;49.994;8.184;2023-11-18T04:35:00;100924.84;;;2.10;98.68
83488;BME280;73424;49.994;8.184;2023-11-18T04:37:31;100883.38;;;1.70;98.73
83488;BME280;73424;49.994;8.184;2023-11-18T04:39:57;100911.69;;;1.99;98.77
83488;BME280;73424;49.994;8.184;2023-11-18T04:42:22;100917.19;;;2.07;99.05
83488;BME280;73424;49.994;8.184;2023-11-18T04:44:47;100890.88;;;2.07;98.05
83488;BME280;73424;49.994;8.184;2023-11-18T04:47:19;100933.16;;;2.38;98.89
83488;BME280;73424;49.994;8.184;2023-11-18T04:49:44;100940.88;;;2.50;98.87
83488;BME280;73424;49.994;8.184;2023-11-18T04:52:10;100911.78;;;2.20;98.30
83488;BME280;73424;49.994;8.184;2023-11-18T04:54:35;100947.59;;;2.43;98.24
83488;BME280;73424;49.994;8.184;2023-11-18T04:57:01;100942.78;;;2.59;98.53
83488;BME280;73424;49.994;8.184;2023-11-18T04:59:26;100928.97;;;2.67;98.29
83488;BME280;73424;49.994;8.184;2023-11-18T05:01:51;100886.66;;;2.48;98.46
83488;BME280;73424;49.994;8.184;2023-11-18T05:04:18;100895.72;;;2.55;97.63
83488;BME280;73424;49.994;8.184;2023-11-18T05:06:43;100903.78;;;2.74;98.58
83488;BME280;73424;49.994;8.184;2023-11-18T05:09:09;100825.22;;;2.27;98.85
83488;BME280;73424;49.994;8.184;2023-11-18T05:11:34;100924.78;;;2.96;98.80
83488;BME280;73424;49.994;8.184;2023-11-18T05:14:00;100909.84;;;3.06;98.59
83488;BME280;73424;49.994;8.184;2023-11-18T05:16:28;100869.59;;;3.04;98.09
83488;BME280;73424;49.994;8.184;2023-11-18T05:18:53;100909.91;;;3.16;97.46
83488;BME280;73424;49.994;8.184;2023-11-18T05:21:18;100902.47;;;3.21;97.42
83488;BME280;73424;49.994;8.184;2023-11-18T05:23:43;100878.78;;;3.10;97.98
83488;BME280;73424;49.994;8.184;2023-11-18T05:26:09;100894.09;;;3.16;97.95
83488;BME280;73424;49.994;8.184;2023-11-18T05:28:34;100884.53;;;3.15;97.36
83488;BME280;73424;49.994;8.184;2023-11-18T05:30:59;100914.03;;;3.29;96.69
83488;BME280;73424;49.994;8.184;2023-11-18T05:33:27;100873.56;;;3.19;97.49
83488;BME280;73424;49.994;8.184;2023-11-18T05:35:54;100901.00;;;3.38;97.84
83488;BME280;73424;49.994;8.184;2023-11-18T05:38:19;100902.78;;;3.37;97.36
83488;BME280;73424;49.994;8.184;2023-11-18T05:40:49;100888.78;;;3.37;97.96
83488;BME280;73424;49.994;8.184;2023-11-18T05:43:26;100877.69;;;3.43;98.59
83488;BME280;73424;49.994;8.184;2023-11-18T05:45:54;100873.16;;;3.45;98.16
83488;BME280;73424;49.994;8.184;2023-11-18T05:48:38;100843.00;;;3.38;97.78
83488;BME280;73424;49.994;8.184;2023-11-18T05:51:03;100836.03;;;3.37;97.73
83488;BME280;73424;49.994;8.184;2023-11-18T05:53:29;100875.41;;;3.59;97.16
83488;BME280;73424;49.994;8.184;2023-11-18T05:55:55;100845.78;;;3.46;97.57
83488;BME280;73424;49.994;8.184;2023-11-18T05:58:20;100867.31;;;3.81;95.86
83488;BME280;73424;49.994;8.184;2023-11-18T06:00:46;100885.94;;;3.89;95.78
83488;BME280;73424;49.994;8.184;2023-11-18T06:03:12;100864.63;;;3.71;95.56
83488;BME280;73424;49.994;8.184;2023-11-18T06:05:37;100874.94;;;3.84;96.00
83488;BME280;73424;49.994;8.184;2023-11-18T06:08:03;100888.00;;;3.85;95.96
83488;BME280;73424;49.994;8.184;2023-11-18T06:10:29;100854.66;;;3.75;95.41
83488;BME280;73424;49.994;8.184;2023-11-18T06:12:56;100887.44;;;3.92;95.85
83488;BME280;73424;49.994;8.184;2023-11-18T06:15:23;100872.16;;;3.76;96.37
83488;BME280;73424;49.994;8.184;2023-11-18T06:17:48;100876.50;;;3.96;95.17
83488;BME280;73424;49.994;8.184;2023-11-18T06:20:16;100812.38;;;3.56;94.85
83488;BME280;73424;49.994;8.184;2023-11-18T06:22:45;100809.88;;;3.54;95.67
83488;BME280;73424;49.994;8.184;2023-11-18T06:25:14;100870.38;;;3.96;95.48
83488;BME280;73424;49.994;8.184;2023-11-18T06:27:44;100855.25;;;3.88;95.64
83488;BME280;73424;49.994;8.184;2023-11-18T06:30:18;100864.13;;;3.87;96.60
83488;BME280;73424;49.994;8.184;2023-11-18T06:32:45;100857.16;;;3.86;95.98
83488;BME280;73424;49.994;8.184;2023-11-18T06:35:16;100871.34;;;3.85;96.88
83488;BME280;73424;49.994;8.184;2023-11-18T06:37:43;100874.66;;;3.77;97.22
83488;BME280;73424;49.994;8.184;2023-11-18T06:40:12;100881.63;;;3.88;96.31
83488;BME280;73424;49.994;8.184;2023-11-18T06:42:49;100886.91;;;3.88;97.24
83488;BME280;73424;49.994;8.184;2023-11-18T06:45:17;100887.44;;;3.92;96.30
83488;BME280;73424;49.994;8.184;2023-11-18T06:47:43;100880.53;;;3.91;96.33
83488;BME280;73424;49.994;8.184;2023-11-18T06:50:10;100888.59;;;3.99;96.94
83488;BME280;73424;49.994;8.184;2023-11-18T06:52:40;100888.31;;;4.02;95.54
83488;BME280;73424;49.994;8.184;2023-11-18T06:55:10;100884.28;;;3.88;96.44
83488;BME280;73424;49.994;8.184;2023-11-18T06:57:36;100860.88;;;3.74;97.17
83488;BME280;73424;49.994;8.184;2023-11-18T07:00:03;100892.50;;;4.04;96.20
83488;BME280;73424;49.994;8.184;2023-11-18T07:02:33;100893.34;;;4.05;96.43
83488;BME280;73424;49.994;8.184;2023-11-18T07:04:59;100895.00;;;4.06;96.83
83488;BME280;73424;49.994;8.184;2023-11-18T07:07:24;100854.09;;;3.81;96.94
83488;BME280;73424;49.994;8.184;2023-11-18T07:09:50;100789.19;;;3.59;97.04
83488;BME280;73424;49.994;8.184;2023-11-18T07:12:17;100875.81;;;4.04;96.40
83488;BME280;73424;49.994;8.184;2023-11-18T07:14:47;100832.19;;;3.90;95.75
83488;BME280;73424;49.994;8.184;2023-11-18T07:17:13;100883.09;;;4.21;95.87
83488;BME280;73424;49.994;8.184;2023-11-18T07:19:39;100880.84;;;4.16;96.49
83488;BME280;73424;49.994;8.184;2023-11-18T07:22:06;100873.63;;;4.09;97.07
83488;BME280;73424;49.994;8.184;2023-11-18T07:24:34;100873.09;;;4.24;97.02
83488;BME280;73424;49.994;8.184;2023-11-18T07:27:00;100867.19;;;3.92;96.39
83488;BME280;73424;49.994;8.184;2023-11-18T07:29:26;100881.94;;;4.14;96.19
83488;BME280;73424;49.994;8.184;2023-11-18T07:31:53;100880.41;;;4.02;95.73
83488;BME280;73424;49.994;8.184;2023-11-18T07:34:22;100904.88;;;4.13;96.29
83488;BME280;73424;49.994;8.184;2023-11-18T07:36:59;100837.69;;;3.77;96.26
83488;BME280;73424;49.994;8.184;2023-11-18T07:39:27;100891.84;;;4.21;95.79
83488;BME280;73424;49.994;8.184;2023-11-18T07:42:12;100904.78;;;4.24;95.74
83488;BME280;73424;49.994;8.184;2023-11-18T07:44:39;100917.84;;;4.26;95.75
83488;BME280;73424;49.994;8.184;2023-11-18T07:47:05;100897.50;;;4.07;96.33
83488;BME280;73424;49.994;8.184;2023-11-18T07:49:36;100896.69;;;4.16;96.50
83488;BME280;73424;49.994;8.184;2023-11-18T07:52:02;100896.41;;;4.19;96.70
83488;BME280;73424;49.994;8.184;2023-11-18T07:54:28;100866.63;;;3.98;97.08
83488;BME280;73424;49.994;8.184;2023-11-18T07:56:56;100913.25;;;4.37;96.90
83488;BME280;73424;49.994;8.184;2023-11-18T07:59:24;100906.06;;;4.39;95.92
83488;BME280;73424;49.994;8.184;2023-11-18T08:01:52;100920.34;;;4.47;96.34
83488;BME280;73424;49.994;8.184;2023-11-18T08:04:19;100922.03;;;4.48;94.86
83488;BME280;73424;49.994;8.184;2023-11-18T08:06:49;100916.34;;;4.43;95.49
83488;BME280;73424;49.994;8.184;2023-11-18T08:09:16;100870.44;;;4.24;96.15
83488;BME280;73424;49.994;8.184;2023-11-18T08:11:48;100902.03;;;4.55;95.48
83488;BME280;73424;49.994;8.184;2023-11-18T08:14:15;100903.53;;;4.38;95.92
83488;BME280;73424;49.994;8.184;2023-11-18T08:16:44;100916.47;;;4.51;95.64
83488;BME280;73424;49.994;8.184;2023-11-18T08:19:11;100916.63;;;4.49;95.23
83488;BME280;73424;49.994;8.184;2023-11-18T08:21:37;100912.59;;;4.55;95.02
83488;BME280;73424;49.994;8.184;2023-11-18T08:24:05;100907.03;;;4.58;95.03
83488;BME280;73424;49.994;8.184;2023-11-18T08:26:33;100908.13;;;4.65;95.52
83488;BME280;73424;49.994;8.184;2023-11-18T08:28:59;100875.59;;;4.55;95.16
83488;BME280;73424;49.994;8.184;2023-11-18T08:31:26;100872.81;;;4.56;94.89
83488;BME280;73424;49.994;8.184;2023-11-18T08:33:51;100870.44;;;4.63;94.35
83488;BME280;73424;49.994;8.184;2023-11-18T08:36:20;100891.19;;;4.67;95.21
83488;BME280;73424;49.994;8.184;2023-11-18T08:38:48;100855.72;;;4.51;94.62
83488;BME280;73424;49.994;8.184;2023-11-18T08:41:14;100884.78;;;4.89;95.40
83488;BME280;73424;49.994;8.184;2023-11-18T08:43:40;100863.06;;;4.85;94.44
83488;BME280;73424;49.994;8.184;2023-11-18T08:46:10;100872.22;;;5.01;94.54
83488;BME280;73424;49.994;8.184;2023-11-18T08:48:37;100866.94;;;5.01;93.64
83488;BME280;73424;49.994;8.184;2023-11-18T08:51:06;100860.78;;;5.10;93.82
83488;BME280;73424;49.994;8.184;2023-11-18T08:53:33;100865.78;;;5.13;93.92
83488;BME280;73424;49.994;8.184;2023-11-18T08:56:09;100756.28;;;4.50;94.43
83488;BME280;73424;49.994;8.184;2023-11-18T08:58:41;100826.84;;;4.95;93.86
83488;BME280;73424;49.994;8.184;2023-11-18T09:01:06;100851.72;;;5.12;93.40
83488;BME280;73424;49.994;8.184;2023-11-18T09:03:38;100865.78;;;5.22;93.39
83488;BME280;73424;49.994;8.184;2023-11-18T09:06:09;100868.81;;;5.27;93.51
83488;BME280;73424;49.994;8.184;2023-11-18T09:08:45;100868.13;;;5.25;94.31
83488;BME280;73424;49.994;8.184;2023-11-18T09:11:14;100850.47;;;5.16;93.85
83488;BME280;73424;49.994;8.184;2023-11-18T09:13:44;100874.94;;;5.28;94.87
83488;BME280;73424;49.994;8.184;2023-11-18T09:16:19;100827.94;;;5.03;92.97
83488;BME280;73424;49.994;8.184;2023-11-18T09:18:45;100872.47;;;5.17;93.48
83488;BME280;73424;49.994;8.184;2023-11-18T09:21:11;100872.41;;;5.26;93.55
83488;BME280;73424;49.994;8.184;2023-11-18T09:23:41;100880.78;;;5.31;93.15
83488;BME280;73424;49.994;8.184;2023-11-18T09:26:07;100854.88;;;5.35;94.02
83488;BME280;73424;49.994;8.184;2023-11-18T09:28:34;100831.53;;;5.11;93.44
83488;BME280;73424;49.994;8.184;2023-11-18T09:31:00;100879.91;;;5.40;93.31
83488;BME280;73424;49.994;8.184;2023-11-18T09:33:29;100835.22;;;4.91;94.39
83488;BME280;73424;49.994;8.184;2023-11-18T09:36:04;100885.19;;;5.40;93.97
83488;BME280;73424;49.994;8.184;2023-11-18T09:38:36;100879.72;;;5.52;93.60
83488;BME280;73424;49.994;8.184;2023-11-18T09:41:03;100888.34;;;5.54;92.90
83488;BME280;73424;49.994;8.184;2023-11-18T09:43:32;100883.47;;;5.59;92.44
83488;BME280;73424;49.994;8.184;2023-11-18T09:46:06;100887.06;;;5.58;92.32
83488;BME280;73424;49.994;8.184;2023-11-18T09:48:46;100817.75;;;5.17;93.42
83488;BME280;73424;49.994;8.184;2023-11-18T09:51:22;100888.50;;;5.52;93.91
83488;BME280;73424;49.994;8.184;2023-11-18T09:53:54;100854.59;;;5.38;93.02
83488;BME280;73424;49.994;8.184;2023-11-18T09:56:28;100846.44;;;5.49;93.10
83488;BME280;73424;49.994;8.184;2023-11-18T09:59:16;100852.84;;;5.56;93.04
83488;BME280;73424;49.994;8.184;2023-11-18T10:01:53;100834.50;;;5.35;94.04
83488;BME280;73424;49.994;8.184;2023-11-18T10:04:23;100894.13;;;5.67;93.30
83488;BME280;73424;49.994;8.184;2023-11-18T10:06:52;100871.53;;;5.72;93.21
83488;BME280;73424;49.994;8.184;2023-11-18T10:09:19;100880.56;;;5.89;93.32
83488;BME280;73424;49.994;8.184;2023-11-18T10:11:54;100895.78;;;5.87;93.02
83488;BME280;73424;49.994;8.184;2023-11-18T10:14:28;100871.78;;;5.79;93.50
83488;BME280;73424;49.994;8.184;2023-11-18T10:16:54;100882.25;;;5.90;92.86
83488;BME280;73424;49.994;8.184;2023-11-18T10:19:20;100879.72;;;5.79;94.20
83488;BME280;73424;49.994;8.184;2023-11-18T10:21:46;100872.78;;;5.78;93.88
83488;BME280;73424;49.994;8.184;2023-11-18T10:24:14;100885.84;;;5.89;94.04
83488;BME280;73424;49.994;8.184;2023-11-18T10:26:42;100856.84;;;5.87;94.60
83488;BME280;73424;49.994;8.184;2023-11-18T10:29:09;100871.25;;;6.02;93.96
83488;BME280;73424;49.994;8.184;2023-11-18T10:31:34;100837.13;;;5.72;94.20
83488;BME280;73424;49.994;8.184;2023-11-18T10:34:03;100864.16;;;6.03;94.07
83488;BME280;73424;49.994;8.184;2023-11-18T10:36:29;100861.22;;;6.06;93.79
83488;BME280;73424;49.994;8.184;2023-11-18T10:38:57;100759.25;;;5.47;94.69
83488;BME280;73424;49.994;8.184;2023-11-18T10:41:25;100857.72;;;6.06;93.86
83488;BME280;73424;49.994;8.184;2023-11-18T10:44:05;100837.25;;;6.08;93.58
83488;BME280;73424;49.994;8.184;2023-11-18T10:46:31;100794.16;;;5.88;93.60
83488;BME280;73424;49.994;8.184;2023-11-18T10:48:57;100838.09;;;6.26;94.26
83488;BME280;73424;49.994;8.184;2023-11-18T10:51:23;100841.88;;;6.23;94.42
83488;BME280;73424;49.994;8.184;2023-11-18T10:53:52;100836.88;;;6.20;93.92
83488;BME280;73424;49.994;8.184;2023-11-18T10:56:20;100831.72;;;6.19;94.98
83488;BME280;73424;49.994;8.184;2023-11-18T10:58:51;100824.97;;;6.07;95.95
83488;BME280;73424;49.994;8.184;2023-11-18T11:01:28;100824.84;;;6.08;95.62
83488;BME280;73424;49.994;8.184;2023-11-18T11:03:54;100813.41;;;6.25;95.13
83488;BME280;73424;49.994;8.184;2023-11-18T11:06:26;100805.75;;;6.40;94.48
83488;BME280;73424;49.994;8.184;2023-11-18T11:08:55;100736.13;;;6.12;93.30
83488;BME280;73424;49.994;8.184;2023-11-18T11:11:24;100752.31;;;6.27;94.22
83488;BME280;73424;49.994;8.184;2023-11-18T11:13:56;100767.81;;;6.39;93.15
83488;BME280;73424;49.994;8.184;2023-11-18T11:16:23;100774.19;;;6.29;93.71
83488;BME280;73424;49.994;8.184;2023-11-18T11:18:55;100739.47;;;6.14;95.01
83488;BME280;73424;49.994;8.184;2023-11-18T11:21:25;100774.16;;;6.46;94.71
83488;BME280;73424;49.994;8.184;2023-11-18T11:23:55;100783.94;;;6.46;94.10
83488;BME280;73424;49.994;8.184;2023-11-18T11:31:50;100741.78;;;6.61;94.53
83488;BME280;73424;49.994;8.184;2023-11-18T11:34:24;100717.13;;;6.42;94.60
83488;BME280;73424;49.994;8.184;2023-11-18T11:36:51;100729.47;;;6.51;94.35
83488;BME280;73424;49.994;8.184;2023-11-18T11:39:19;100744.59;;;6.59;93.66
83488;BME280;73424;49.994;8.184;2023-11-18T11:41:54;100704.94;;;6.49;93.87
83488;BME280;73424;49.994;8.184;2023-11-18T11:44:24;100689.44;;;6.37;93.64
83488;BME280;73424;49.994;8.184;2023-11-18T11:46:57;100631.53;;;6.16;94.21
83488;BME280;73424;49.994;8.184;2023-11-18T11:49:26;100728.19;;;6.81;94.33
83488;BME280;73424;49.994;8.184;2023-11-18T11:52:09;100722.56;;;6.84;94.03
83488;BME280;73424;49.994;8.184;2023-11-18T11:54:43;100718.84;;;7.03;92.76
83488;BME280;73424;49.994;8.184;2023-11-18T11:57:10;100686.94;;;6.87;92.82
83488;BME280;73424;49.994;8.184;2023-11-18T12:02:13;100690.09;;;6.90;92.92
83488;BME280;73424;49.994;8.184;2023-11-18T12:04:43;100675.38;;;6.96;93.27
83488;BME280;73424;49.994;8.184;2023-11-18T12:07:09;100688.34;;;7.07;92.14
83488;BME280;73424;49.994;8.184;2023-11-18T12:09:36;100633.09;;;6.61;92.19
83488;BME280;73424;49.994;8.184;2023-11-18T12:12:05;100660.81;;;7.00;91.14
83488;BME280;73424;49.994;8.184;2023-11-18T12:14:49;100647.88;;;7.05;91.41
83488;BME280;73424;49.994;8.184;2023-11-18T12:17:14;100667.09;;;6.99;92.29
83488;BME280;73424;49.994;8.184;2023-11-18T12:19:47;100656.91;;;6.86;92.57
83488;BME280;73424;49.994;8.184;2023-11-18T12:22:17;100682.06;;;7.16;92.96
83488;BME280;73424;49.994;8.184;2023-11-18T12:30:20;100679.00;;;7.37;92.77
83488;BME280;73424;49.994;8.184;2023-11-18T12:32:58;100666.06;;;7.42;92.44
83488;BME280;73424;49.994;8.184;2023-11-18T12:35:26;100632.03;;;7.21;92.40
83488;BME280;73424;49.994;8.184;2023-11-18T12:43:17;100639.69;;;7.56;92.66
83488;BME280;73424;49.994;8.184;2023-11-18T12:48:43;100632.75;;;7.63;93.22
83488;BME280;73424;49.994;8.184;2023-11-18T12:51:10;100620.78;;;7.59;92.52
83488;BME280;73424;49.994;8.184;2023-11-18T12:53:45;100571.66;;;7.39;93.10
83488;BME280;73424;49.994;8.184;2023-11-18T12:56:12;100574.47;;;7.62;91.97
83488;BME280;73424;49.994;8.184;2023-11-18T12:58:39;100561.03;;;7.55;92.66
83488;BME280;73424;49.994;8.184;2023-11-18T13:01:04;100605.19;;;7.89;91.93
83488;BME280;73424;49.994;8.184;2023-11-18T13:03:30;100544.78;;;7.50;91.54
83488;BME280;73424;49.994;8.184;2023-11-18T13:05:55;100567.34;;;7.46;92.72
83488;BME280;73424;49.994;8.184;2023-11-18T13:08:21;100592.59;;;7.66;93.93
83488;BME280;73424;49.994;8.184;2023-11-18T13:10:47;100532.00;;;7.38;93.67
83488;BME280;73424;49.994;8.184;2023-11-18T13:13:13;100521.72;;;7.51;92.47
83488;BME280;73424;49.994;8.184;2023-11-18T13:15:42;100556.56;;;7.72;92.43
83488;BME280;73424;49.994;8.184;2023-11-18T13:18:07;100528.53;;;7.45;93.28
83488;BME280;73424;49.994;8.184;2023-11-18T13:20:34;100547.09;;;7.86;92.49
83488;BME280;73424;49.994;8.184;2023-11-18T13:23:04;100518.56;;;7.63;93.52
83488;BME280;73424;49.994;8.184;2023-11-18T13:25:37;100545.28;;;7.78;93.58
83488;BME280;73424;49.994;8.184;2023-11-18T13:28:13;100492.38;;;7.36;92.58
83488;BME280;73424;49.994;8.184;2023-11-18T13:30:39;100508.28;;;7.52;92.55
83488;BME280;73424;49.994;8.184;2023-11-18T13:33:05;100510.78;;;7.70;91.64